Aviation Digital Data Service (ADDS)

Output produced by METARs form (0119 UTC 20 February 2018)
found at http://www.aviationweather.gov/adds/metars/
 
Forecast for: RKJK (KUNSAN (US/KOR-A, KR)
Text: TAF RKJK 192300Z 1923/2105 VRB06KT 4800 BR FEW080 QNH3022INS
Forecast period: 2300 UTC 19 February 2018 to 0000 UTC 20 February 2018
Forecast type: FROM: standard forecast or significant change
Winds: variable direction winds at 7 MPH (6 knots; 3.1 m/s)
Visibility: 2.98 miles (4.80 km)
Clouds: few clouds at 8000 feet AGL
Weather: BR  (mist)
Text: BECMG 2000/2001 34009KT 9999 NSW SCT060 SCT180 QNH3019INS
Forecast period: 0000 to 0800 UTC 20 February 2018
Forecast type: BECOMING: Conditions expected to become as follows by 0100 UTC 20 February 2018
Winds: from the NNW (340 degrees) at 10 MPH (9 knots; 4.7 m/s)
Visibility: 6 or more miles (10+ km)
Clouds: scattered clouds at 6000 feet AGL
scattered clouds at 18000 feet AGL
Weather: NSW  (no significant weather)
Text: BECMG 2008/2009 VRB06KT 9999 SCT150 QNH3023INS TX06/2004Z TNM04/2019Z
Forecast period: 0800 UTC 20 February 2018 to 0500 UTC 21 February 2018
Forecast type: BECOMING: Conditions expected to become as follows by 0900 UTC 20 February 2018
Winds: variable direction winds at 7 MPH (6 knots; 3.1 m/s)
Visibility: 6 or more miles (10+ km)
Clouds: scattered clouds at 15000 feet AGL
Weather: NSW  (no significant weather)